sensor_id;sensor_type;location;lat;lon;timestamp;P1;durP1;ratioP1;P2;durP2;ratioP2
12892;SDS011;6514;48.606;9.222;2023-01-15T00:02:22;0.63;;;0.60;;
12892;SDS011;6514;48.606;9.222;2023-01-15T00:04:49;0.80;;;0.60;;
12892;SDS011;6514;48.606;9.222;2023-01-15T00:07:16;0.57;;;0.50;;
12892;SDS011;6514;48.606;9.222;2023-01-15T00:09:43;0.80;;;0.70;;
12892;SDS011;6514;48.606;9.222;2023-01-15T00:12:09;2.20;;;0.57;;
12892;SDS011;6514;48.606;9.222;2023-01-15T00:14:36;0.63;;;0.63;;
12892;SDS011;6514;48.606;9.222;2023-01-15T00:17:03;1.17;;;0.77;;
12892;SDS011;6514;48.606;9.222;2023-01-15T00:19:31;0.60;;;0.60;;
12892;SDS011;6514;48.606;9.222;2023-01-15T00:21:58;0.50;;;0.50;;
12892;SDS011;6514;48.606;9.222;2023-01-15T00:24:25;1.57;;;0.60;;
12892;SDS011;6514;48.606;9.222;2023-01-15T00:27:09;0.63;;;0.40;;
12892;SDS011;6514;48.606;9.222;2023-01-15T00:29:53;1.20;;;0.80;;
12892;SDS011;6514;48.606;9.222;2023-01-15T00:32:20;0.50;;;0.50;;
12892;SDS011;6514;48.606;9.222;2023-01-15T00:34:48;0.60;;;0.60;;
12892;SDS011;6514;48.606;9.222;2023-01-15T00:37:15;0.50;;;0.50;;
12892;SDS011;6514;48.606;9.222;2023-01-15T00:39:42;0.43;;;0.40;;
12892;SDS011;6514;48.606;9.222;2023-01-15T00:42:09;0.83;;;0.60;;
12892;SDS011;6514;48.606;9.222;2023-01-15T00:44:37;0.50;;;0.50;;
12892;SDS011;6514;48.606;9.222;2023-01-15T00:47:03;0.40;;;0.40;;
12892;SDS011;6514;48.606;9.222;2023-01-15T00:49:33;0.97;;;0.60;;
12892;SDS011;6514;48.606;9.222;2023-01-15T00:52:01;0.90;;;0.90;;
12892;SDS011;6514;48.606;9.222;2023-01-15T00:54:28;0.43;;;0.40;;
12892;SDS011;6514;48.606;9.222;2023-01-15T00:56:55;0.70;;;0.40;;
12892;SDS011;6514;48.606;9.222;2023-01-15T00:59:22;0.47;;;0.47;;
12892;SDS011;6514;48.606;9.222;2023-01-15T01:01:49;0.87;;;0.60;;
12892;SDS011;6514;48.606;9.222;2023-01-15T01:04:16;0.37;;;0.37;;
12892;SDS011;6514;48.606;9.222;2023-01-15T01:06:43;1.90;;;0.50;;
12892;SDS011;6514;48.606;9.222;2023-01-15T01:09:12;0.83;;;0.53;;
12892;SDS011;6514;48.606;9.222;2023-01-15T01:11:39;1.13;;;0.40;;
12892;SDS011;6514;48.606;9.222;2023-01-15T01:14:06;0.63;;;0.50;;
12892;SDS011;6514;48.606;9.222;2023-01-15T01:16:34;0.60;;;0.57;;
12892;SDS011;6514;48.606;9.222;2023-01-15T01:19:03;2.00;;;0.50;;
12892;SDS011;6514;48.606;9.222;2023-01-15T01:21:32;0.60;;;0.50;;
12892;SDS011;6514;48.606;9.222;2023-01-15T01:24:00;0.70;;;0.70;;
12892;SDS011;6514;48.606;9.222;2023-01-15T01:26:28;0.80;;;0.40;;
12892;SDS011;6514;48.606;9.222;2023-01-15T01:28:56;0.40;;;0.40;;
12892;SDS011;6514;48.606;9.222;2023-01-15T01:31:23;0.73;;;0.50;;
12892;SDS011;6514;48.606;9.222;2023-01-15T01:33:51;0.40;;;0.40;;
12892;SDS011;6514;48.606;9.222;2023-01-15T01:36:19;0.40;;;0.40;;
12892;SDS011;6514;48.606;9.222;2023-01-15T01:38:51;0.50;;;0.40;;
12892;SDS011;6514;48.606;9.222;2023-01-15T01:41:18;0.30;;;0.30;;
12892;SDS011;6514;48.606;9.222;2023-01-15T01:43:53;0.50;;;0.40;;
12892;SDS011;6514;48.606;9.222;2023-01-15T01:46:22;0.43;;;0.40;;
12892;SDS011;6514;48.606;9.222;2023-01-15T01:48:51;0.53;;;0.30;;
12892;SDS011;6514;48.606;9.222;2023-01-15T01:51:21;0.30;;;0.30;;
12892;SDS011;6514;48.606;9.222;2023-01-15T01:53:51;0.40;;;0.33;;
12892;SDS011;6514;48.606;9.222;2023-01-15T01:56:18;0.80;;;0.20;;
12892;SDS011;6514;48.606;9.222;2023-01-15T01:58:46;0.40;;;0.40;;
12892;SDS011;6514;48.606;9.222;2023-01-15T02:01:19;0.43;;;0.30;;
12892;SDS011;6514;48.606;9.222;2023-01-15T02:03:47;0.37;;;0.37;;
12892;SDS011;6514;48.606;9.222;2023-01-15T02:06:15;0.30;;;0.30;;
12892;SDS011;6514;48.606;9.222;2023-01-15T02:08:42;0.70;;;0.40;;
12892;SDS011;6514;48.606;9.222;2023-01-15T02:11:11;0.83;;;0.30;;
12892;SDS011;6514;48.606;9.222;2023-01-15T02:13:42;1.20;;;0.30;;
12892;SDS011;6514;48.606;9.222;2023-01-15T02:16:15;0.20;;;0.20;;
12892;SDS011;6514;48.606;9.222;2023-01-15T02:18:49;1.87;;;0.20;;
12892;SDS011;6514;48.606;9.222;2023-01-15T02:21:22;0.30;;;0.30;;
12892;SDS011;6514;48.606;9.222;2023-01-15T02:24:05;0.40;;;0.40;;
12892;SDS011;6514;48.606;9.222;2023-01-15T02:26:49;0.30;;;0.30;;
12892;SDS011;6514;48.606;9.222;2023-01-15T02:29:28;0.30;;;0.30;;
12892;SDS011;6514;48.606;9.222;2023-01-15T02:32:01;0.40;;;0.40;;
12892;SDS011;6514;48.606;9.222;2023-01-15T02:34:34;0.40;;;0.40;;
12892;SDS011;6514;48.606;9.222;2023-01-15T02:37:05;0.40;;;0.40;;
12892;SDS011;6514;48.606;9.222;2023-01-15T02:39:34;0.60;;;0.40;;
12892;SDS011;6514;48.606;9.222;2023-01-15T02:42:07;0.40;;;0.40;;
12892;SDS011;6514;48.606;9.222;2023-01-15T02:44:37;0.20;;;0.20;;
12892;SDS011;6514;48.606;9.222;2023-01-15T02:47:07;0.30;;;0.30;;
12892;SDS011;6514;48.606;9.222;2023-01-15T02:49:35;0.47;;;0.47;;
12892;SDS011;6514;48.606;9.222;2023-01-15T02:52:05;0.37;;;0.37;;
12892;SDS011;6514;48.606;9.222;2023-01-15T02:54:36;0.70;;;0.23;;
12892;SDS011;6514;48.606;9.222;2023-01-15T02:57:09;0.50;;;0.40;;
12892;SDS011;6514;48.606;9.222;2023-01-15T02:59:37;0.30;;;0.30;;
12892;SDS011;6514;48.606;9.222;2023-01-15T03:02:08;0.50;;;0.30;;
12892;SDS011;6514;48.606;9.222;2023-01-15T03:04:39;0.97;;;0.33;;
12892;SDS011;6514;48.606;9.222;2023-01-15T03:07:11;0.50;;;0.50;;
12892;SDS011;6514;48.606;9.222;2023-01-15T03:09:44;0.40;;;0.40;;
12892;SDS011;6514;48.606;9.222;2023-01-15T03:12:14;0.57;;;0.37;;
12892;SDS011;6514;48.606;9.222;2023-01-15T03:14:49;0.40;;;0.40;;
12892;SDS011;6514;48.606;9.222;2023-01-15T03:17:21;0.30;;;0.30;;
12892;SDS011;6514;48.606;9.222;2023-01-15T03:19:55;0.43;;;0.30;;
12892;SDS011;6514;48.606;9.222;2023-01-15T03:22:27;1.33;;;0.23;;
12892;SDS011;6514;48.606;9.222;2023-01-15T03:24:58;0.30;;;0.30;;
12892;SDS011;6514;48.606;9.222;2023-01-15T03:27:30;0.30;;;0.30;;
12892;SDS011;6514;48.606;9.222;2023-01-15T03:29:58;2.10;;;0.40;;
12892;SDS011;6514;48.606;9.222;2023-01-15T03:32:28;0.40;;;0.40;;
12892;SDS011;6514;48.606;9.222;2023-01-15T03:34:56;0.30;;;0.30;;
12892;SDS011;6514;48.606;9.222;2023-01-15T03:37:24;0.43;;;0.30;;
12892;SDS011;6514;48.606;9.222;2023-01-15T03:39:53;0.30;;;0.30;;
12892;SDS011;6514;48.606;9.222;2023-01-15T03:42:25;0.37;;;0.37;;
12892;SDS011;6514;48.606;9.222;2023-01-15T03:45:01;0.70;;;0.43;;
12892;SDS011;6514;48.606;9.222;2023-01-15T03:47:37;2.00;;;0.60;;
12892;SDS011;6514;48.606;9.222;2023-01-15T03:50:17;0.87;;;0.60;;
12892;SDS011;6514;48.606;9.222;2023-01-15T03:52:52;3.60;;;0.60;;
12892;SDS011;6514;48.606;9.222;2023-01-15T03:55:27;0.70;;;0.50;;
12892;SDS011;6514;48.606;9.222;2023-01-15T03:58:07;0.50;;;0.40;;
12892;SDS011;6514;48.606;9.222;2023-01-15T04:00:39;0.40;;;0.37;;
12892;SDS011;6514;48.606;9.222;2023-01-15T04:03:09;0.70;;;0.30;;
12892;SDS011;6514;48.606;9.222;2023-01-15T04:05:39;0.50;;;0.50;;
12892;SDS011;6514;48.606;9.222;2023-01-15T04:08:07;1.23;;;0.30;;
12892;SDS011;6514;48.606;9.222;2023-01-15T04:10:35;0.27;;;0.27;;
12892;SDS011;6514;48.606;9.222;2023-01-15T04:13:02;0.30;;;0.30;;
12892;SDS011;6514;48.606;9.222;2023-01-15T04:15:30;1.37;;;0.40;;
12892;SDS011;6514;48.606;9.222;2023-01-15T04:17:57;1.33;;;0.30;;
12892;SDS011;6514;48.606;9.222;2023-01-15T04:20:23;0.43;;;0.40;;
12892;SDS011;6514;48.606;9.222;2023-01-15T04:22:50;0.40;;;0.40;;
12892;SDS011;6514;48.606;9.222;2023-01-15T04:25:17;0.30;;;0.20;;
12892;SDS011;6514;48.606;9.222;2023-01-15T04:27:44;0.23;;;0.23;;
12892;SDS011;6514;48.606;9.222;2023-01-15T04:30:11;0.27;;;0.27;;
12892;SDS011;6514;48.606;9.222;2023-01-15T04:32:42;0.30;;;0.30;;
12892;SDS011;6514;48.606;9.222;2023-01-15T04:35:09;0.30;;;0.30;;
12892;SDS011;6514;48.606;9.222;2023-01-15T04:37:36;0.30;;;0.30;;
12892;SDS011;6514;48.606;9.222;2023-01-15T04:40:04;0.20;;;0.20;;
12892;SDS011;6514;48.606;9.222;2023-01-15T04:42:31;0.23;;;0.23;;
12892;SDS011;6514;48.606;9.222;2023-01-15T04:45:27;0.30;;;0.30;;
12892;SDS011;6514;48.606;9.222;2023-01-15T04:47:56;0.30;;;0.30;;
12892;SDS011;6514;48.606;9.222;2023-01-15T04:50:22;0.40;;;0.30;;
12892;SDS011;6514;48.606;9.222;2023-01-15T04:52:49;0.30;;;0.30;;
12892;SDS011;6514;48.606;9.222;2023-01-15T04:55:16;0.30;;;0.30;;
12892;SDS011;6514;48.606;9.222;2023-01-15T04:57:43;0.20;;;0.20;;
12892;SDS011;6514;48.606;9.222;2023-01-15T05:00:10;0.40;;;0.40;;
12892;SDS011;6514;48.606;9.222;2023-01-15T05:02:37;0.30;;;0.30;;
12892;SDS011;6514;48.606;9.222;2023-01-15T05:05:06;0.33;;;0.33;;
12892;SDS011;6514;48.606;9.222;2023-01-15T05:07:33;0.20;;;0.20;;
12892;SDS011;6514;48.606;9.222;2023-01-15T05:10:00;0.43;;;0.30;;
12892;SDS011;6514;48.606;9.222;2023-01-15T05:12:27;0.77;;;0.30;;
12892;SDS011;6514;48.606;9.222;2023-01-15T05:14:54;0.33;;;0.30;;
12892;SDS011;6514;48.606;9.222;2023-01-15T05:17:20;0.40;;;0.30;;
12892;SDS011;6514;48.606;9.222;2023-01-15T05:19:47;0.30;;;0.30;;
12892;SDS011;6514;48.606;9.222;2023-01-15T05:22:16;0.60;;;0.50;;
12892;SDS011;6514;48.606;9.222;2023-01-15T05:24:42;0.70;;;0.30;;
12892;SDS011;6514;48.606;9.222;2023-01-15T05:27:09;0.40;;;0.40;;
12892;SDS011;6514;48.606;9.222;2023-01-15T05:29:36;0.53;;;0.53;;
12892;SDS011;6514;48.606;9.222;2023-01-15T05:32:03;0.50;;;0.50;;
12892;SDS011;6514;48.606;9.222;2023-01-15T05:34:30;0.50;;;0.50;;
12892;SDS011;6514;48.606;9.222;2023-01-15T05:36:57;1.53;;;0.33;;
12892;SDS011;6514;48.606;9.222;2023-01-15T05:39:25;2.50;;;1.23;;
12892;SDS011;6514;48.606;9.222;2023-01-15T05:41:52;0.30;;;0.30;;
12892;SDS011;6514;48.606;9.222;2023-01-15T05:44:20;0.93;;;0.50;;
12892;SDS011;6514;48.606;9.222;2023-01-15T05:46:49;0.33;;;0.33;;
12892;SDS011;6514;48.606;9.222;2023-01-15T05:49:17;0.40;;;0.40;;
12892;SDS011;6514;48.606;9.222;2023-01-15T05:51:46;0.50;;;0.40;;
12892;SDS011;6514;48.606;9.222;2023-01-15T05:54:14;0.60;;;0.60;;
12892;SDS011;6514;48.606;9.222;2023-01-15T05:56:43;0.57;;;0.33;;
12892;SDS011;6514;48.606;9.222;2023-01-15T05:59:12;0.50;;;0.50;;
12892;SDS011;6514;48.606;9.222;2023-01-15T06:01:39;0.90;;;0.47;;
12892;SDS011;6514;48.606;9.222;2023-01-15T06:06:43;0.53;;;0.30;;
12892;SDS011;6514;48.606;9.222;2023-01-15T06:09:10;2.20;;;0.40;;
12892;SDS011;6514;48.606;9.222;2023-01-15T06:11:37;0.30;;;0.30;;
12892;SDS011;6514;48.606;9.222;2023-01-15T06:14:05;1.40;;;0.33;;
12892;SDS011;6514;48.606;9.222;2023-01-15T06:16:32;1.07;;;0.53;;
12892;SDS011;6514;48.606;9.222;2023-01-15T06:18:59;0.20;;;0.20;;
12892;SDS011;6514;48.606;9.222;2023-01-15T06:21:28;1.27;;;0.30;;
12892;SDS011;6514;48.606;9.222;2023-01-15T06:23:55;0.30;;;0.30;;
12892;SDS011;6514;48.606;9.222;2023-01-15T06:26:22;1.73;;;0.30;;
12892;SDS011;6514;48.606;9.222;2023-01-15T06:28:49;0.20;;;0.20;;
12892;SDS011;6514;48.606;9.222;2023-01-15T06:31:18;0.40;;;0.40;;
12892;SDS011;6514;48.606;9.222;2023-01-15T06:33:46;0.20;;;0.20;;
12892;SDS011;6514;48.606;9.222;2023-01-15T06:36:14;0.70;;;0.40;;
12892;SDS011;6514;48.606;9.222;2023-01-15T06:38:43;0.30;;;0.30;;
12892;SDS011;6514;48.606;9.222;2023-01-15T06:41:11;0.40;;;0.40;;
12892;SDS011;6514;48.606;9.222;2023-01-15T06:43:53;0.63;;;0.20;;
12892;SDS011;6514;48.606;9.222;2023-01-15T06:46:39;0.40;;;0.40;;
12892;SDS011;6514;48.606;9.222;2023-01-15T06:49:27;0.23;;;0.23;;
12892;SDS011;6514;48.606;9.222;2023-01-15T06:51:54;0.30;;;0.30;;
12892;SDS011;6514;48.606;9.222;2023-01-15T06:54:21;0.20;;;0.20;;
12892;SDS011;6514;48.606;9.222;2023-01-15T06:56:48;1.43;;;0.30;;
12892;SDS011;6514;48.606;9.222;2023-01-15T06:59:15;0.30;;;0.30;;
12892;SDS011;6514;48.606;9.222;2023-01-15T07:01:43;0.30;;;0.30;;
12892;SDS011;6514;48.606;9.222;2023-01-15T07:04:10;1.43;;;0.30;;
12892;SDS011;6514;48.606;9.222;2023-01-15T07:06:37;0.30;;;0.30;;
12892;SDS011;6514;48.606;9.222;2023-01-15T07:09:04;0.50;;;0.40;;
12892;SDS011;6514;48.606;9.222;2023-01-15T07:11:31;0.30;;;0.30;;
12892;SDS011;6514;48.606;9.222;2023-01-15T07:13:58;0.30;;;0.30;;
12892;SDS011;6514;48.606;9.222;2023-01-15T07:16:30;0.30;;;0.30;;
12892;SDS011;6514;48.606;9.222;2023-01-15T07:18:59;0.30;;;0.30;;
12892;SDS011;6514;48.606;9.222;2023-01-15T07:21:26;0.20;;;0.20;;
12892;SDS011;6514;48.606;9.222;2023-01-15T07:23:53;0.30;;;0.30;;
12892;SDS011;6514;48.606;9.222;2023-01-15T07:26:23;0.33;;;0.33;;
12892;SDS011;6514;48.606;9.222;2023-01-15T07:28:50;0.53;;;0.20;;
12892;SDS011;6514;48.606;9.222;2023-01-15T07:31:17;0.20;;;0.20;;
12892;SDS011;6514;48.606;9.222;2023-01-15T07:33:44;0.20;;;0.20;;
12892;SDS011;6514;48.606;9.222;2023-01-15T07:36:12;0.47;;;0.33;;
12892;SDS011;6514;48.606;9.222;2023-01-15T07:38:39;0.30;;;0.27;;
12892;SDS011;6514;48.606;9.222;2023-01-15T07:41:06;0.20;;;0.20;;
12892;SDS011;6514;48.606;9.222;2023-01-15T07:43:50;0.20;;;0.20;;
12892;SDS011;6514;48.606;9.222;2023-01-15T07:46:34;0.50;;;0.40;;
12892;SDS011;6514;48.606;9.222;2023-01-15T07:49:18;0.30;;;0.30;;
12892;SDS011;6514;48.606;9.222;2023-01-15T07:52:04;0.30;;;0.30;;
12892;SDS011;6514;48.606;9.222;2023-01-15T07:54:31;1.03;;;0.40;;
12892;SDS011;6514;48.606;9.222;2023-01-15T07:56:57;0.30;;;0.30;;
12892;SDS011;6514;48.606;9.222;2023-01-15T07:59:24;0.20;;;0.20;;
12892;SDS011;6514;48.606;9.222;2023-01-15T08:01:51;0.40;;;0.40;;
12892;SDS011;6514;48.606;9.222;2023-01-15T08:04:18;0.20;;;0.20;;
12892;SDS011;6514;48.606;9.222;2023-01-15T08:06:45;0.40;;;0.40;;
12892;SDS011;6514;48.606;9.222;2023-01-15T08:09:13;0.30;;;0.30;;
12892;SDS011;6514;48.606;9.222;2023-01-15T08:11:40;2.07;;;0.43;;
12892;SDS011;6514;48.606;9.222;2023-01-15T08:14:24;0.10;;;0.10;;
12892;SDS011;6514;48.606;9.222;2023-01-15T08:17:08;0.30;;;0.30;;
12892;SDS011;6514;48.606;9.222;2023-01-15T08:19:35;1.50;;;0.20;;
12892;SDS011;6514;48.606;9.222;2023-01-15T08:22:02;0.40;;;0.40;;
12892;SDS011;6514;48.606;9.222;2023-01-15T08:24:30;0.23;;;0.23;;
12892;SDS011;6514;48.606;9.222;2023-01-15T08:26:57;0.60;;;0.37;;
12892;SDS011;6514;48.606;9.222;2023-01-15T08:29:24;1.07;;;0.40;;
12892;SDS011;6514;48.606;9.222;2023-01-15T08:31:51;0.50;;;0.50;;
12892;SDS011;6514;48.606;9.222;2023-01-15T08:34:18;0.40;;;0.40;;
12892;SDS011;6514;48.606;9.222;2023-01-15T08:36:45;0.40;;;0.40;;
12892;SDS011;6514;48.606;9.222;2023-01-15T08:39:13;0.73;;;0.30;;
12892;SDS011;6514;48.606;9.222;2023-01-15T08:41:41;0.40;;;0.40;;
12892;SDS011;6514;48.606;9.222;2023-01-15T08:44:08;0.40;;;0.40;;
12892;SDS011;6514;48.606;9.222;2023-01-15T08:46:36;1.17;;;0.30;;
12892;SDS011;6514;48.606;9.222;2023-01-15T08:49:02;0.27;;;0.27;;
12892;SDS011;6514;48.606;9.222;2023-01-15T08:51:29;0.80;;;0.63;;
12892;SDS011;6514;48.606;9.222;2023-01-15T08:53:56;0.67;;;0.67;;
12892;SDS011;6514;48.606;9.222;2023-01-15T08:56:23;2.00;;;1.60;;
12892;SDS011;6514;48.606;9.222;2023-01-15T08:58:51;2.40;;;1.47;;
12892;SDS011;6514;48.606;9.222;2023-01-15T09:01:18;2.97;;;2.00;;
12892;SDS011;6514;48.606;9.222;2023-01-15T09:03:45;3.10;;;2.27;;
12892;SDS011;6514;48.606;9.222;2023-01-15T09:06:12;2.03;;;1.30;;
12892;SDS011;6514;48.606;9.222;2023-01-15T09:08:39;2.03;;;1.17;;
12892;SDS011;6514;48.606;9.222;2023-01-15T09:11:06;1.10;;;1.00;;
12892;SDS011;6514;48.606;9.222;2023-01-15T09:13:34;2.00;;;0.90;;
12892;SDS011;6514;48.606;9.222;2023-01-15T09:16:04;1.27;;;0.60;;
12892;SDS011;6514;48.606;9.222;2023-01-15T09:18:35;0.53;;;0.53;;
12892;SDS011;6514;48.606;9.222;2023-01-15T09:21:03;0.60;;;0.53;;
12892;SDS011;6514;48.606;9.222;2023-01-15T09:23:30;0.60;;;0.30;;
12892;SDS011;6514;48.606;9.222;2023-01-15T09:25:58;1.53;;;1.00;;
12892;SDS011;6514;48.606;9.222;2023-01-15T09:28:26;1.13;;;1.03;;
12892;SDS011;6514;48.606;9.222;2023-01-15T09:30:53;2.77;;;2.37;;
12892;SDS011;6514;48.606;9.222;2023-01-15T09:33:21;7.37;;;5.97;;
12892;SDS011;6514;48.606;9.222;2023-01-15T09:35:48;2.23;;;2.00;;
12892;SDS011;6514;48.606;9.222;2023-01-15T09:38:17;1.43;;;1.30;;
12892;SDS011;6514;48.606;9.222;2023-01-15T09:40:46;1.70;;;1.60;;
12892;SDS011;6514;48.606;9.222;2023-01-15T09:43:19;4.53;;;3.00;;
12892;SDS011;6514;48.606;9.222;2023-01-15T09:45:55;2.60;;;2.13;;
12892;SDS011;6514;48.606;9.222;2023-01-15T09:48:38;1.67;;;1.57;;
12892;SDS011;6514;48.606;9.222;2023-01-15T09:51:15;0.90;;;0.80;;
12892;SDS011;6514;48.606;9.222;2023-01-15T09:53:56;0.40;;;0.30;;
12892;SDS011;6514;48.606;9.222;2023-01-15T09:56:36;0.47;;;0.47;;
12892;SDS011;6514;48.606;9.222;2023-01-15T09:59:04;0.30;;;0.30;;
12892;SDS011;6514;48.606;9.222;2023-01-15T10:01:39;0.20;;;0.20;;
12892;SDS011;6514;48.606;9.222;2023-01-15T10:04:12;0.37;;;0.37;;
12892;SDS011;6514;48.606;9.222;2023-01-15T10:06:44;0.23;;;0.23;;
12892;SDS011;6514;48.606;9.222;2023-01-15T10:09:16;0.30;;;0.30;;
12892;SDS011;6514;48.606;9.222;2023-01-15T10:11:47;0.23;;;0.23;;
12892;SDS011;6514;48.606;9.222;2023-01-15T10:14:39;0.37;;;0.37;;
12892;SDS011;6514;48.606;9.222;2023-01-15T10:17:17;2.90;;;0.40;;
12892;SDS011;6514;48.606;9.222;2023-01-15T10:19:49;0.73;;;0.40;;
12892;SDS011;6514;48.606;9.222;2023-01-15T10:22:20;0.40;;;0.40;;
12892;SDS011;6514;48.606;9.222;2023-01-15T10:25:01;0.50;;;0.20;;
12892;SDS011;6514;48.606;9.222;2023-01-15T10:27:34;0.30;;;0.30;;
12892;SDS011;6514;48.606;9.222;2023-01-15T10:30:04;0.20;;;0.20;;
12892;SDS011;6514;48.606;9.222;2023-01-15T10:32:41;0.20;;;0.20;;
12892;SDS011;6514;48.606;9.222;2023-01-15T10:35:25;0.20;;;0.20;;
12892;SDS011;6514;48.606;9.222;2023-01-15T10:37:58;0.70;;;0.40;;
12892;SDS011;6514;48.606;9.222;2023-01-15T10:40:33;1.30;;;0.30;;
12892;SDS011;6514;48.606;9.222;2023-01-15T10:43:23;0.20;;;0.20;;
12892;SDS011;6514;48.606;9.222;2023-01-15T10:45:58;0.33;;;0.33;;
12892;SDS011;6514;48.606;9.222;2023-01-15T10:48:28;0.63;;;0.30;;
12892;SDS011;6514;48.606;9.222;2023-01-15T10:51:03;0.30;;;0.30;;
12892;SDS011;6514;48.606;9.222;2023-01-15T10:53:39;0.30;;;0.30;;
12892;SDS011;6514;48.606;9.222;2023-01-15T10:56:11;1.30;;;0.40;;
12892;SDS011;6514;48.606;9.222;2023-01-15T10:58:47;0.20;;;0.20;;
12892;SDS011;6514;48.606;9.222;2023-01-15T11:01:20;0.93;;;0.40;;
12892;SDS011;6514;48.606;9.222;2023-01-15T11:03:50;0.40;;;0.40;;
12892;SDS011;6514;48.606;9.222;2023-01-15T11:06:21;0.30;;;0.30;;
12892;SDS011;6514;48.606;9.222;2023-01-15T11:08:50;0.27;;;0.27;;
12892;SDS011;6514;48.606;9.222;2023-01-15T11:11:20;0.60;;;0.50;;
12892;SDS011;6514;48.606;9.222;2023-01-15T11:14:03;0.33;;;0.33;;
12892;SDS011;6514;48.606;9.222;2023-01-15T11:16:47;0.33;;;0.30;;
12892;SDS011;6514;48.606;9.222;2023-01-15T11:19:34;0.30;;;0.30;;
12892;SDS011;6514;48.606;9.222;2023-01-15T11:22:09;0.30;;;0.30;;
12892;SDS011;6514;48.606;9.222;2023-01-15T11:24:43;0.30;;;0.30;;
12892;SDS011;6514;48.606;9.222;2023-01-15T11:27:14;0.50;;;0.50;;
12892;SDS011;6514;48.606;9.222;2023-01-15T11:29:43;0.40;;;0.40;;
12892;SDS011;6514;48.606;9.222;2023-01-15T11:32:20;0.40;;;0.40;;
12892;SDS011;6514;48.606;9.222;2023-01-15T11:34:52;1.27;;;0.43;;
12892;SDS011;6514;48.606;9.222;2023-01-15T11:37:21;0.60;;;0.30;;
12892;SDS011;6514;48.606;9.222;2023-01-15T11:39:51;0.73;;;0.40;;
12892;SDS011;6514;48.606;9.222;2023-01-15T11:42:20;2.07;;;1.50;;
12892;SDS011;6514;48.606;9.222;2023-01-15T11:45:13;0.83;;;0.50;;
12892;SDS011;6514;48.606;9.222;2023-01-15T11:47:59;0.87;;;0.33;;
12892;SDS011;6514;48.606;9.222;2023-01-15T11:50:53;0.83;;;0.83;;
12892;SDS011;6514;48.606;9.222;2023-01-15T11:53:24;0.60;;;0.60;;
12892;SDS011;6514;48.606;9.222;2023-01-15T11:55:56;0.40;;;0.40;;
12892;SDS011;6514;48.606;9.222;2023-01-15T11:58:26;0.30;;;0.30;;
12892;SDS011;6514;48.606;9.222;2023-01-15T12:00:54;0.30;;;0.30;;
12892;SDS011;6514;48.606;9.222;2023-01-15T12:03:23;0.30;;;0.30;;
12892;SDS011;6514;48.606;9.222;2023-01-15T12:05:54;0.40;;;0.40;;
12892;SDS011;6514;48.606;9.222;2023-01-15T12:08:38;0.30;;;0.30;;
12892;SDS011;6514;48.606;9.222;2023-01-15T12:11:19;0.50;;;0.50;;
12892;SDS011;6514;48.606;9.222;2023-01-15T12:13:58;0.37;;;0.30;;
12892;SDS011;6514;48.606;9.222;2023-01-15T12:16:34;1.33;;;0.60;;
12892;SDS011;6514;48.606;9.222;2023-01-15T12:19:08;0.20;;;0.20;;
12892;SDS011;6514;48.606;9.222;2023-01-15T12:21:43;1.03;;;0.40;;
12892;SDS011;6514;48.606;9.222;2023-01-15T12:24:33;0.23;;;0.23;;
12892;SDS011;6514;48.606;9.222;2023-01-15T12:27:09;2.03;;;0.40;;
12892;SDS011;6514;48.606;9.222;2023-01-15T12:29:56;0.30;;;0.30;;
12892;SDS011;6514;48.606;9.222;2023-01-15T12:32:28;0.30;;;0.30;;
12892;SDS011;6514;48.606;9.222;2023-01-15T12:35:01;0.40;;;0.40;;
12892;SDS011;6514;48.606;9.222;2023-01-15T12:37:33;0.30;;;0.30;;
12892;SDS011;6514;48.606;9.222;2023-01-15T12:40:07;0.47;;;0.30;;
12892;SDS011;6514;48.606;9.222;2023-01-15T12:42:44;0.20;;;0.20;;
12892;SDS011;6514;48.606;9.222;2023-01-15T12:45:33;0.20;;;0.20;;
12892;SDS011;6514;48.606;9.222;2023-01-15T12:48:04;0.40;;;0.40;;
12892;SDS011;6514;48.606;9.222;2023-01-15T12:50:40;0.93;;;0.50;;
12892;SDS011;6514;48.606;9.222;2023-01-15T12:53:11;1.97;;;1.40;;
12892;SDS011;6514;48.606;9.222;2023-01-15T12:55:45;0.80;;;0.60;;
12892;SDS011;6514;48.606;9.222;2023-01-15T12:58:20;1.30;;;0.80;;
12892;SDS011;6514;48.606;9.222;2023-01-15T13:00:59;1.17;;;0.80;;
12892;SDS011;6514;48.606;9.222;2023-01-15T13:03:30;1.30;;;1.17;;
12892;SDS011;6514;48.606;9.222;2023-01-15T13:06:03;0.87;;;0.60;;
12892;SDS011;6514;48.606;9.222;2023-01-15T13:08:33;1.00;;;0.80;;
12892;SDS011;6514;48.606;9.222;2023-01-15T13:11:08;1.33;;;0.90;;
12892;SDS011;6514;48.606;9.222;2023-01-15T13:13:38;1.97;;;1.00;;
12892;SDS011;6514;48.606;9.222;2023-01-15T13:16:11;3.07;;;1.27;;
12892;SDS011;6514;48.606;9.222;2023-01-15T13:18:49;1.97;;;1.27;;
12892;SDS011;6514;48.606;9.222;2023-01-15T13:21:23;0.70;;;0.63;;
12892;SDS011;6514;48.606;9.222;2023-01-15T13:23:56;0.60;;;0.60;;
12892;SDS011;6514;48.606;9.222;2023-01-15T13:26:41;0.67;;;0.67;;
12892;SDS011;6514;48.606;9.222;2023-01-15T13:29:21;0.73;;;0.53;;
12892;SDS011;6514;48.606;9.222;2023-01-15T13:31:56;1.33;;;0.60;;
12892;SDS011;6514;48.606;9.222;2023-01-15T13:34:28;0.60;;;0.60;;
12892;SDS011;6514;48.606;9.222;2023-01-15T13:37:02;0.60;;;0.60;;
12892;SDS011;6514;48.606;9.222;2023-01-15T13:39:44;0.83;;;0.50;;
12892;SDS011;6514;48.606;9.222;2023-01-15T13:42:16;0.60;;;0.60;;
12892;SDS011;6514;48.606;9.222;2023-01-15T13:44:57;0.70;;;0.47;;
12892;SDS011;6514;48.606;9.222;2023-01-15T13:47:28;0.83;;;0.63;;
12892;SDS011;6514;48.606;9.222;2023-01-15T13:49:58;0.60;;;0.60;;
12892;SDS011;6514;48.606;9.222;2023-01-15T13:52:29;1.13;;;0.67;;
12892;SDS011;6514;48.606;9.222;2023-01-15T13:54:59;0.73;;;0.53;;
12892;SDS011;6514;48.606;9.222;2023-01-15T13:57:39;0.70;;;0.50;;
12892;SDS011;6514;48.606;9.222;2023-01-15T14:00:07;1.27;;;0.60;;
12892;SDS011;6514;48.606;9.222;2023-01-15T14:02:51;0.70;;;0.50;;
12892;SDS011;6514;48.606;9.222;2023-01-15T14:05:30;0.70;;;0.70;;
12892;SDS011;6514;48.606;9.222;2023-01-15T14:07:58;2.17;;;0.80;;
12892;SDS011;6514;48.606;9.222;2023-01-15T14:10:36;2.63;;;1.47;;
12892;SDS011;6514;48.606;9.222;2023-01-15T14:13:28;1.63;;;0.90;;
12892;SDS011;6514;48.606;9.222;2023-01-15T14:16:12;2.67;;;1.10;;
12892;SDS011;6514;48.606;9.222;2023-01-15T14:18:52;1.93;;;0.80;;
12892;SDS011;6514;48.606;9.222;2023-01-15T14:21:31;4.83;;;0.90;;
12892;SDS011;6514;48.606;9.222;2023-01-15T14:24:18;3.53;;;1.20;;
12892;SDS011;6514;48.606;9.222;2023-01-15T14:27:09;0.80;;;0.80;;
12892;SDS011;6514;48.606;9.222;2023-01-15T14:29:59;0.90;;;0.70;;
12892;SDS011;6514;48.606;9.222;2023-01-15T14:32:39;1.57;;;0.80;;
12892;SDS011;6514;48.606;9.222;2023-01-15T14:35:18;1.37;;;0.83;;
12892;SDS011;6514;48.606;9.222;2023-01-15T14:37:47;1.47;;;1.10;;
12892;SDS011;6514;48.606;9.222;2023-01-15T14:40:18;1.93;;;0.97;;
12892;SDS011;6514;48.606;9.222;2023-01-15T14:42:48;1.90;;;0.90;;
12892;SDS011;6514;48.606;9.222;2023-01-15T14:45:28;2.10;;;0.93;;
12892;SDS011;6514;48.606;9.222;2023-01-15T14:47:57;1.60;;;0.70;;
12892;SDS011;6514;48.606;9.222;2023-01-15T14:50:27;1.67;;;0.90;;
12892;SDS011;6514;48.606;9.222;2023-01-15T14:52:58;2.20;;;0.97;;
12892;SDS011;6514;48.606;9.222;2023-01-15T14:55:29;1.70;;;0.70;;
12892;SDS011;6514;48.606;9.222;2023-01-15T14:57:57;1.37;;;0.80;;
12892;SDS011;6514;48.606;9.222;2023-01-15T15:00:30;2.00;;;0.80;;
12892;SDS011;6514;48.606;9.222;2023-01-15T15:03:01;1.70;;;0.70;;
12892;SDS011;6514;48.606;9.222;2023-01-15T15:05:36;2.33;;;0.80;;
12892;SDS011;6514;48.606;9.222;2023-01-15T15:08:09;2.57;;;0.67;;
12892;SDS011;6514;48.606;9.222;2023-01-15T15:10:39;1.50;;;0.50;;
12892;SDS011;6514;48.606;9.222;2023-01-15T15:13:11;0.67;;;0.57;;
12892;SDS011;6514;48.606;9.222;2023-01-15T15:15:43;1.30;;;0.67;;
12892;SDS011;6514;48.606;9.222;2023-01-15T15:18:20;2.37;;;1.00;;
12892;SDS011;6514;48.606;9.222;2023-01-15T15:20:54;1.63;;;0.80;;
12892;SDS011;6514;48.606;9.222;2023-01-15T15:23:30;1.83;;;0.97;;
12892;SDS011;6514;48.606;9.222;2023-01-15T15:26:04;1.00;;;0.60;;
12892;SDS011;6514;48.606;9.222;2023-01-15T15:28:32;1.03;;;0.60;;
12892;SDS011;6514;48.606;9.222;2023-01-15T15:31:00;1.83;;;0.60;;